sensor_id;sensor_type;location;lat;lon;timestamp;temperature;humidity
67974;DHT22;54756;51.140;6.952;2022-08-19T00:00:36;17.90;41.70
67974;DHT22;54756;51.140;6.952;2022-08-19T00:02:37;17.90;42.10
67974;DHT22;54756;51.140;6.952;2022-08-19T00:04:38;17.80;42.00
67974;DHT22;54756;51.140;6.952;2022-08-19T00:06:42;17.80;42.90
67974;DHT22;54756;51.140;6.952;2022-08-19T00:08:43;17.80;43.50
67974;DHT22;54756;51.140;6.952;2022-08-19T00:10:45;17.80;42.00
67974;DHT22;54756;51.140;6.952;2022-08-19T00:12:46;17.80;42.10
67974;DHT22;54756;51.140;6.952;2022-08-19T00:14:47;17.70;42.80
67974;DHT22;54756;51.140;6.952;2022-08-19T00:16:48;17.70;44.00
67974;DHT22;54756;51.140;6.952;2022-08-19T00:18:49;17.70;44.70
67974;DHT22;54756;51.140;6.952;2022-08-19T00:20:49;17.70;44.20
67974;DHT22;54756;51.140;6.952;2022-08-19T00:22:50;17.70;44.40
67974;DHT22;54756;51.140;6.952;2022-08-19T00:24:52;17.70;44.80
67974;DHT22;54756;51.140;6.952;2022-08-19T00:26:52;17.60;45.00
67974;DHT22;54756;51.140;6.952;2022-08-19T00:28:54;17.60;45.50
67974;DHT22;54756;51.140;6.952;2022-08-19T00:30:55;17.60;45.80
67974;DHT22;54756;51.140;6.952;2022-08-19T00:32:57;17.50;47.10
67974;DHT22;54756;51.140;6.952;2022-08-19T00:34:57;17.50;47.30
67974;DHT22;54756;51.140;6.952;2022-08-19T00:36:58;17.50;47.40
67974;DHT22;54756;51.140;6.952;2022-08-19T00:39:00;17.50;47.50
67974;DHT22;54756;51.140;6.952;2022-08-19T00:41:00;17.50;47.60
67974;DHT22;54756;51.140;6.952;2022-08-19T00:43:01;17.50;47.90
67974;DHT22;54756;51.140;6.952;2022-08-19T00:45:02;17.50;47.90
67974;DHT22;54756;51.140;6.952;2022-08-19T00:47:09;17.40;48.60
67974;DHT22;54756;51.140;6.952;2022-08-19T00:49:15;17.40;49.40
67974;DHT22;54756;51.140;6.952;2022-08-19T00:51:16;17.40;49.60
67974;DHT22;54756;51.140;6.952;2022-08-19T00:53:21;17.40;49.70
67974;DHT22;54756;51.140;6.952;2022-08-19T00:55:24;17.40;50.60
67974;DHT22;54756;51.140;6.952;2022-08-19T00:57:38;17.40;49.50
67974;DHT22;54756;51.140;6.952;2022-08-19T00:59:42;17.30;50.30
67974;DHT22;54756;51.140;6.952;2022-08-19T01:01:44;17.30;49.90
67974;DHT22;54756;51.140;6.952;2022-08-19T01:03:45;17.30;50.00
67974;DHT22;54756;51.140;6.952;2022-08-19T01:05:47;17.30;50.10
67974;DHT22;54756;51.140;6.952;2022-08-19T01:07:49;17.20;50.40
67974;DHT22;54756;51.140;6.952;2022-08-19T01:09:51;17.20;50.70
67974;DHT22;54756;51.140;6.952;2022-08-19T01:11:52;17.20;51.20
67974;DHT22;54756;51.140;6.952;2022-08-19T01:13:53;17.20;51.20
67974;DHT22;54756;51.140;6.952;2022-08-19T01:16:02;17.20;51.60
67974;DHT22;54756;51.140;6.952;2022-08-19T01:18:09;17.10;52.70
67974;DHT22;54756;51.140;6.952;2022-08-19T01:20:17;17.10;52.70
67974;DHT22;54756;51.140;6.952;2022-08-19T01:24:46;17.10;54.00
67974;DHT22;54756;51.140;6.952;2022-08-19T01:26:48;17.10;53.10
67974;DHT22;54756;51.140;6.952;2022-08-19T01:28:51;17.10;53.40
67974;DHT22;54756;51.140;6.952;2022-08-19T01:30:53;17.00;53.70
67974;DHT22;54756;51.140;6.952;2022-08-19T01:32:55;17.00;53.90
67974;DHT22;54756;51.140;6.952;2022-08-19T01:34:55;17.00;54.30
67974;DHT22;54756;51.140;6.952;2022-08-19T01:36:56;17.00;54.40
67974;DHT22;54756;51.140;6.952;2022-08-19T01:38:58;17.00;54.40
67974;DHT22;54756;51.140;6.952;2022-08-19T01:40:59;17.00;55.00
67974;DHT22;54756;51.140;6.952;2022-08-19T01:43:01;16.90;55.30
67974;DHT22;54756;51.140;6.952;2022-08-19T01:45:04;16.90;54.80
67974;DHT22;54756;51.140;6.952;2022-08-19T01:47:05;16.90;55.30
67974;DHT22;54756;51.140;6.952;2022-08-19T01:49:06;16.90;55.30
67974;DHT22;54756;51.140;6.952;2022-08-19T01:51:09;16.80;55.30
67974;DHT22;54756;51.140;6.952;2022-08-19T01:53:11;16.80;55.70
67974;DHT22;54756;51.140;6.952;2022-08-19T01:55:15;16.80;56.20
67974;DHT22;54756;51.140;6.952;2022-08-19T01:57:16;16.80;56.80
67974;DHT22;54756;51.140;6.952;2022-08-19T01:59:19;16.70;57.20
67974;DHT22;54756;51.140;6.952;2022-08-19T02:01:20;16.70;57.30
67974;DHT22;54756;51.140;6.952;2022-08-19T02:03:20;16.70;57.40
67974;DHT22;54756;51.140;6.952;2022-08-19T02:05:21;16.70;57.70
67974;DHT22;54756;51.140;6.952;2022-08-19T02:07:22;16.70;57.70
67974;DHT22;54756;51.140;6.952;2022-08-19T02:09:22;16.60;57.40
67974;DHT22;54756;51.140;6.952;2022-08-19T02:11:31;16.60;57.50
67974;DHT22;54756;51.140;6.952;2022-08-19T02:13:35;16.60;58.00
67974;DHT22;54756;51.140;6.952;2022-08-19T02:15:37;16.60;57.60
67974;DHT22;54756;51.140;6.952;2022-08-19T02:17:39;16.60;57.60
67974;DHT22;54756;51.140;6.952;2022-08-19T02:19:39;16.60;57.90
67974;DHT22;54756;51.140;6.952;2022-08-19T02:21:41;16.60;58.40
67974;DHT22;54756;51.140;6.952;2022-08-19T02:23:42;16.60;58.70
67974;DHT22;54756;51.140;6.952;2022-08-19T02:25:45;16.60;58.70
67974;DHT22;54756;51.140;6.952;2022-08-19T02:27:46;16.60;59.10
67974;DHT22;54756;51.140;6.952;2022-08-19T02:29:49;16.60;58.70
67974;DHT22;54756;51.140;6.952;2022-08-19T02:31:50;16.50;58.60
67974;DHT22;54756;51.140;6.952;2022-08-19T02:33:51;16.50;58.60
67974;DHT22;54756;51.140;6.952;2022-08-19T02:35:52;16.50;57.90
67974;DHT22;54756;51.140;6.952;2022-08-19T02:37:53;16.50;58.10
67974;DHT22;54756;51.140;6.952;2022-08-19T02:40:12;16.50;58.30
67974;DHT22;54756;51.140;6.952;2022-08-19T02:42:13;16.40;59.00
67974;DHT22;54756;51.140;6.952;2022-08-19T02:44:13;16.40;59.70
67974;DHT22;54756;51.140;6.952;2022-08-19T02:46:23;16.40;60.10
67974;DHT22;54756;51.140;6.952;2022-08-19T02:48:24;16.40;60.10
67974;DHT22;54756;51.140;6.952;2022-08-19T02:50:25;16.40;59.80
67974;DHT22;54756;51.140;6.952;2022-08-19T02:52:26;16.30;59.10
67974;DHT22;54756;51.140;6.952;2022-08-19T02:54:27;16.30;59.20
67974;DHT22;54756;51.140;6.952;2022-08-19T02:56:28;16.40;59.50
67974;DHT22;54756;51.140;6.952;2022-08-19T02:58:31;16.30;59.80
67974;DHT22;54756;51.140;6.952;2022-08-19T03:00:31;16.40;60.20
67974;DHT22;54756;51.140;6.952;2022-08-19T03:02:32;16.30;60.20
67974;DHT22;54756;51.140;6.952;2022-08-19T03:04:33;16.30;60.30
67974;DHT22;54756;51.140;6.952;2022-08-19T03:06:40;16.30;61.60
67974;DHT22;54756;51.140;6.952;2022-08-19T03:08:43;16.30;61.60
67974;DHT22;54756;51.140;6.952;2022-08-19T03:10:46;16.30;60.90
67974;DHT22;54756;51.140;6.952;2022-08-19T03:12:47;16.30;60.70
67974;DHT22;54756;51.140;6.952;2022-08-19T03:14:47;16.30;60.80
67974;DHT22;54756;51.140;6.952;2022-08-19T03:16:50;16.30;60.80
67974;DHT22;54756;51.140;6.952;2022-08-19T03:18:52;16.30;61.00
67974;DHT22;54756;51.140;6.952;2022-08-19T03:20:53;16.30;61.10
67974;DHT22;54756;51.140;6.952;2022-08-19T03:22:54;16.30;61.60
67974;DHT22;54756;51.140;6.952;2022-08-19T03:24:55;16.30;61.90
67974;DHT22;54756;51.140;6.952;2022-08-19T03:26:56;16.30;62.10
67974;DHT22;54756;51.140;6.952;2022-08-19T03:29:00;16.30;62.20
67974;DHT22;54756;51.140;6.952;2022-08-19T03:31:05;16.30;62.30
67974;DHT22;54756;51.140;6.952;2022-08-19T03:33:10;16.30;62.60
67974;DHT22;54756;51.140;6.952;2022-08-19T03:35:14;16.30;62.70
67974;DHT22;54756;51.140;6.952;2022-08-19T03:37:14;16.20;63.00
67974;DHT22;54756;51.140;6.952;2022-08-19T03:39:16;16.20;63.00
67974;DHT22;54756;51.140;6.952;2022-08-19T03:41:23;16.30;63.00
67974;DHT22;54756;51.140;6.952;2022-08-19T03:43:24;16.30;62.70
67974;DHT22;54756;51.140;6.952;2022-08-19T03:45:24;16.30;62.60
67974;DHT22;54756;51.140;6.952;2022-08-19T03:47:25;16.20;62.60
67974;DHT22;54756;51.140;6.952;2022-08-19T03:49:28;16.20;62.60
67974;DHT22;54756;51.140;6.952;2022-08-19T03:51:32;16.20;63.50
67974;DHT22;54756;51.140;6.952;2022-08-19T03:53:34;16.30;65.10
67974;DHT22;54756;51.140;6.952;2022-08-19T03:55:40;16.30;66.60
67974;DHT22;54756;51.140;6.952;2022-08-19T03:57:41;16.40;65.80
67974;DHT22;54756;51.140;6.952;2022-08-19T03:59:42;16.50;65.10
67974;DHT22;54756;51.140;6.952;2022-08-19T04:01:42;16.60;64.40
67974;DHT22;54756;51.140;6.952;2022-08-19T04:03:44;16.70;64.30
67974;DHT22;54756;51.140;6.952;2022-08-19T04:05:47;16.80;64.20
67974;DHT22;54756;51.140;6.952;2022-08-19T04:07:48;16.80;63.10
67974;DHT22;54756;51.140;6.952;2022-08-19T04:09:49;16.90;62.40
67974;DHT22;54756;51.140;6.952;2022-08-19T04:11:52;16.90;61.40
67974;DHT22;54756;51.140;6.952;2022-08-19T04:13:56;17.00;60.70
67974;DHT22;54756;51.140;6.952;2022-08-19T04:15:57;17.00;60.10
67974;DHT22;54756;51.140;6.952;2022-08-19T04:17:57;17.00;60.20
67974;DHT22;54756;51.140;6.952;2022-08-19T04:19:58;17.00;60.90
67974;DHT22;54756;51.140;6.952;2022-08-19T04:21:59;17.00;60.30
67974;DHT22;54756;51.140;6.952;2022-08-19T04:24:01;17.00;61.60
67974;DHT22;54756;51.140;6.952;2022-08-19T04:26:02;17.00;60.00
67974;DHT22;54756;51.140;6.952;2022-08-19T04:28:03;17.00;59.90
67974;DHT22;54756;51.140;6.952;2022-08-19T04:30:04;17.00;60.00
67974;DHT22;54756;51.140;6.952;2022-08-19T04:32:05;17.00;60.70
67974;DHT22;54756;51.140;6.952;2022-08-19T04:34:08;17.00;60.20
67974;DHT22;54756;51.140;6.952;2022-08-19T04:36:37;16.90;60.00
67974;DHT22;54756;51.140;6.952;2022-08-19T04:38:38;16.90;60.20
67974;DHT22;54756;51.140;6.952;2022-08-19T04:40:50;16.90;60.30
67974;DHT22;54756;51.140;6.952;2022-08-19T04:43:09;16.80;61.00
67974;DHT22;54756;51.140;6.952;2022-08-19T04:45:14;16.80;61.20
67974;DHT22;54756;51.140;6.952;2022-08-19T04:47:14;16.80;61.60
67974;DHT22;54756;51.140;6.952;2022-08-19T04:49:16;16.80;62.10
67974;DHT22;54756;51.140;6.952;2022-08-19T04:51:17;16.80;62.60
67974;DHT22;54756;51.140;6.952;2022-08-19T04:53:18;16.80;63.00
67974;DHT22;54756;51.140;6.952;2022-08-19T04:55:18;16.80;63.70
67974;DHT22;54756;51.140;6.952;2022-08-19T04:57:19;16.80;64.90
67974;DHT22;54756;51.140;6.952;2022-08-19T04:59:20;16.90;65.10
67974;DHT22;54756;51.140;6.952;2022-08-19T05:01:24;16.90;64.30
67974;DHT22;54756;51.140;6.952;2022-08-19T05:03:25;17.00;64.40
67974;DHT22;54756;51.140;6.952;2022-08-19T05:05:25;17.10;64.20
67974;DHT22;54756;51.140;6.952;2022-08-19T05:07:26;17.10;64.50
67974;DHT22;54756;51.140;6.952;2022-08-19T05:09:28;17.20;63.70
67974;DHT22;54756;51.140;6.952;2022-08-19T05:11:31;17.20;63.20
67974;DHT22;54756;51.140;6.952;2022-08-19T05:13:32;17.30;62.90
67974;DHT22;54756;51.140;6.952;2022-08-19T05:15:33;17.40;62.70
67974;DHT22;54756;51.140;6.952;2022-08-19T05:17:35;17.40;62.80
67974;DHT22;54756;51.140;6.952;2022-08-19T05:19:35;17.50;63.20
67974;DHT22;54756;51.140;6.952;2022-08-19T05:21:54;17.50;63.00
67974;DHT22;54756;51.140;6.952;2022-08-19T05:24:15;17.60;62.50
67974;DHT22;54756;51.140;6.952;2022-08-19T05:26:15;17.60;61.90
67974;DHT22;54756;51.140;6.952;2022-08-19T05:28:16;17.60;62.20
67974;DHT22;54756;51.140;6.952;2022-08-19T05:30:17;17.70;62.40
67974;DHT22;54756;51.140;6.952;2022-08-19T05:32:18;17.80;62.00
67974;DHT22;54756;51.140;6.952;2022-08-19T05:34:20;17.90;61.10
67974;DHT22;54756;51.140;6.952;2022-08-19T05:36:22;17.90;60.30
67974;DHT22;54756;51.140;6.952;2022-08-19T05:38:22;17.90;59.60
67974;DHT22;54756;51.140;6.952;2022-08-19T05:40:23;18.00;59.30
67974;DHT22;54756;51.140;6.952;2022-08-19T05:42:24;18.00;59.20
67974;DHT22;54756;51.140;6.952;2022-08-19T05:44:28;18.00;59.00
67974;DHT22;54756;51.140;6.952;2022-08-19T05:46:32;18.00;58.60
67974;DHT22;54756;51.140;6.952;2022-08-19T05:48:35;18.00;59.30
67974;DHT22;54756;51.140;6.952;2022-08-19T05:50:36;18.00;59.20
67974;DHT22;54756;51.140;6.952;2022-08-19T05:52:38;18.10;59.40
67974;DHT22;54756;51.140;6.952;2022-08-19T05:54:39;18.10;59.80
67974;DHT22;54756;51.140;6.952;2022-08-19T05:56:43;18.20;60.50
67974;DHT22;54756;51.140;6.952;2022-08-19T05:58:45;18.20;60.00
67974;DHT22;54756;51.140;6.952;2022-08-19T06:00:45;18.20;59.80
67974;DHT22;54756;51.140;6.952;2022-08-19T06:02:46;18.30;59.40
67974;DHT22;54756;51.140;6.952;2022-08-19T06:04:46;18.30;59.20
67974;DHT22;54756;51.140;6.952;2022-08-19T06:06:49;18.30;59.50
67974;DHT22;54756;51.140;6.952;2022-08-19T06:08:51;18.30;59.00
67974;DHT22;54756;51.140;6.952;2022-08-19T06:10:53;18.40;59.50
67974;DHT22;54756;51.140;6.952;2022-08-19T06:12:53;18.40;58.60
67974;DHT22;54756;51.140;6.952;2022-08-19T06:14:54;18.40;58.30
67974;DHT22;54756;51.140;6.952;2022-08-19T06:16:56;18.50;58.30
67974;DHT22;54756;51.140;6.952;2022-08-19T06:18:59;18.50;58.70
67974;DHT22;54756;51.140;6.952;2022-08-19T06:21:00;18.50;58.50
67974;DHT22;54756;51.140;6.952;2022-08-19T06:23:04;18.60;58.40
67974;DHT22;54756;51.140;6.952;2022-08-19T06:25:05;18.60;58.80
67974;DHT22;54756;51.140;6.952;2022-08-19T06:27:06;18.60;59.10
67974;DHT22;54756;51.140;6.952;2022-08-19T06:29:09;18.70;59.50
67974;DHT22;54756;51.140;6.952;2022-08-19T06:31:10;18.70;58.80
67974;DHT22;54756;51.140;6.952;2022-08-19T06:33:11;18.70;59.00
67974;DHT22;54756;51.140;6.952;2022-08-19T06:35:12;18.70;58.60
67974;DHT22;54756;51.140;6.952;2022-08-19T06:37:14;18.70;59.30
67974;DHT22;54756;51.140;6.952;2022-08-19T06:39:20;18.80;59.40
67974;DHT22;54756;51.140;6.952;2022-08-19T06:41:21;18.80;59.30
67974;DHT22;54756;51.140;6.952;2022-08-19T06:43:22;18.80;59.20
67974;DHT22;54756;51.140;6.952;2022-08-19T06:45:23;18.80;59.90
67974;DHT22;54756;51.140;6.952;2022-08-19T06:47:23;18.80;58.90
67974;DHT22;54756;51.140;6.952;2022-08-19T06:49:24;18.90;58.30
67974;DHT22;54756;51.140;6.952;2022-08-19T06:51:31;18.90;58.20
67974;DHT22;54756;51.140;6.952;2022-08-19T06:53:33;18.90;58.60
67974;DHT22;54756;51.140;6.952;2022-08-19T06:55:33;18.90;58.00
67974;DHT22;54756;51.140;6.952;2022-08-19T06:57:34;18.90;57.90
67974;DHT22;54756;51.140;6.952;2022-08-19T06:59:35;19.00;58.10
67974;DHT22;54756;51.140;6.952;2022-08-19T07:01:40;19.00;58.20
67974;DHT22;54756;51.140;6.952;2022-08-19T07:03:41;19.00;57.80
67974;DHT22;54756;51.140;6.952;2022-08-19T07:05:42;19.00;57.00
67974;DHT22;54756;51.140;6.952;2022-08-19T07:07:43;19.00;57.00
67974;DHT22;54756;51.140;6.952;2022-08-19T07:09:44;19.10;56.70
67974;DHT22;54756;51.140;6.952;2022-08-19T07:11:47;19.00;57.00
67974;DHT22;54756;51.140;6.952;2022-08-19T07:13:48;19.00;56.70
67974;DHT22;54756;51.140;6.952;2022-08-19T07:15:49;19.00;56.50
67974;DHT22;54756;51.140;6.952;2022-08-19T07:17:50;19.00;56.40
67974;DHT22;54756;51.140;6.952;2022-08-19T07:19:52;19.10;57.20
67974;DHT22;54756;51.140;6.952;2022-08-19T07:21:53;19.10;55.80
67974;DHT22;54756;51.140;6.952;2022-08-19T07:23:55;19.10;55.90
67974;DHT22;54756;51.140;6.952;2022-08-19T07:25:56;19.10;55.60
67974;DHT22;54756;51.140;6.952;2022-08-19T07:27:57;19.20;55.60
67974;DHT22;54756;51.140;6.952;2022-08-19T07:29:57;19.20;55.40
67974;DHT22;54756;51.140;6.952;2022-08-19T07:31:59;19.20;54.60
67974;DHT22;54756;51.140;6.952;2022-08-19T07:34:00;19.20;54.50
67974;DHT22;54756;51.140;6.952;2022-08-19T07:36:00;19.20;54.50
67974;DHT22;54756;51.140;6.952;2022-08-19T07:38:01;19.30;55.10
67974;DHT22;54756;51.140;6.952;2022-08-19T07:40:05;19.20;54.10
67974;DHT22;54756;51.140;6.952;2022-08-19T07:42:08;19.30;53.70
67974;DHT22;54756;51.140;6.952;2022-08-19T07:44:10;19.30;53.90
67974;DHT22;54756;51.140;6.952;2022-08-19T07:46:11;19.30;53.70
67974;DHT22;54756;51.140;6.952;2022-08-19T07:48:13;19.40;53.30
67974;DHT22;54756;51.140;6.952;2022-08-19T07:50:15;19.40;52.80
67974;DHT22;54756;51.140;6.952;2022-08-19T07:52:16;19.50;51.90
67974;DHT22;54756;51.140;6.952;2022-08-19T07:54:19;19.60;51.50
67974;DHT22;54756;51.140;6.952;2022-08-19T07:56:21;19.60;50.50
67974;DHT22;54756;51.140;6.952;2022-08-19T07:58:22;19.60;50.10
67974;DHT22;54756;51.140;6.952;2022-08-19T08:00:22;19.70;49.90
67974;DHT22;54756;51.140;6.952;2022-08-19T08:02:23;19.80;49.00
67974;DHT22;54756;51.140;6.952;2022-08-19T08:04:24;19.90;47.90
67974;DHT22;54756;51.140;6.952;2022-08-19T08:06:43;20.00;46.50
67974;DHT22;54756;51.140;6.952;2022-08-19T08:09:05;20.20;45.00
67974;DHT22;54756;51.140;6.952;2022-08-19T08:11:12;20.40;43.70
67974;DHT22;54756;51.140;6.952;2022-08-19T08:13:12;20.50;41.40
67974;DHT22;54756;51.140;6.952;2022-08-19T08:15:15;20.70;40.00
67974;DHT22;54756;51.140;6.952;2022-08-19T08:17:21;21.00;38.90
67974;DHT22;54756;51.140;6.952;2022-08-19T08:19:24;21.20;35.90
67974;DHT22;54756;51.140;6.952;2022-08-19T08:21:25;21.40;34.60
67974;DHT22;54756;51.140;6.952;2022-08-19T08:23:26;21.60;30.50
67974;DHT22;54756;51.140;6.952;2022-08-19T08:25:26;21.80;28.40
67974;DHT22;54756;51.140;6.952;2022-08-19T08:27:27;22.00;26.80
67974;DHT22;54756;51.140;6.952;2022-08-19T08:29:30;22.20;26.00
67974;DHT22;54756;51.140;6.952;2022-08-19T08:31:31;22.50;24.10
67974;DHT22;54756;51.140;6.952;2022-08-19T08:33:34;22.70;21.30
67974;DHT22;54756;51.140;6.952;2022-08-19T08:35:35;22.90;17.80
67974;DHT22;54756;51.140;6.952;2022-08-19T08:37:36;23.00;16.60
67974;DHT22;54756;51.140;6.952;2022-08-19T08:39:36;23.20;14.40
67974;DHT22;54756;51.140;6.952;2022-08-19T08:41:46;23.30;12.60
67974;DHT22;54756;51.140;6.952;2022-08-19T08:43:51;23.40;10.40
67974;DHT22;54756;51.140;6.952;2022-08-19T08:48:19;23.80;8.50
67974;DHT22;54756;51.140;6.952;2022-08-19T08:50:27;24.10;4.00
67974;DHT22;54756;51.140;6.952;2022-08-19T08:52:33;24.40;2.20
67974;DHT22;54756;51.140;6.952;2022-08-19T08:54:46;24.50;1.60
67974;DHT22;54756;51.140;6.952;2022-08-19T08:56:49;24.80;1.00
67974;DHT22;54756;51.140;6.952;2022-08-19T09:00:56;25.00;1.00
67974;DHT22;54756;51.140;6.952;2022-08-19T09:02:58;25.10;1.00
67974;DHT22;54756;51.140;6.952;2022-08-19T09:05:01;25.00;1.00
67974;DHT22;54756;51.140;6.952;2022-08-19T09:09:32;24.80;1.00
67974;DHT22;54756;51.140;6.952;2022-08-19T09:11:47;24.80;1.00
67974;DHT22;54756;51.140;6.952;2022-08-19T09:14:32;24.80;1.00
67974;DHT22;54756;51.140;6.952;2022-08-19T09:16:33;24.80;1.00
67974;DHT22;54756;51.140;6.952;2022-08-19T09:18:46;24.80;1.00
67974;DHT22;54756;51.140;6.952;2022-08-19T09:20:47;24.80;1.00
67974;DHT22;54756;51.140;6.952;2022-08-19T09:22:48;24.70;1.00
67974;DHT22;54756;51.140;6.952;2022-08-19T09:24:50;24.80;1.00
67974;DHT22;54756;51.140;6.952;2022-08-19T09:26:52;24.80;1.00
67974;DHT22;54756;51.140;6.952;2022-08-19T09:28:53;24.90;1.00
67974;DHT22;54756;51.140;6.952;2022-08-19T09:30:54;24.90;1.00
67974;DHT22;54756;51.140;6.952;2022-08-19T09:32:55;25.00;1.00
67974;DHT22;54756;51.140;6.952;2022-08-19T09:34:56;25.20;1.00
67974;DHT22;54756;51.140;6.952;2022-08-19T09:36:58;25.30;1.00
67974;DHT22;54756;51.140;6.952;2022-08-19T09:39:00;25.30;1.00
67974;DHT22;54756;51.140;6.952;2022-08-19T09:41:05;25.40;1.00
67974;DHT22;54756;51.140;6.952;2022-08-19T09:43:06;25.40;1.00
67974;DHT22;54756;51.140;6.952;2022-08-19T09:45:07;25.40;1.00
67974;DHT22;54756;51.140;6.952;2022-08-19T09:47:09;25.40;1.00
67974;DHT22;54756;51.140;6.952;2022-08-19T09:49:10;25.40;1.00
67974;DHT22;54756;51.140;6.952;2022-08-19T09:51:13;25.40;1.00
67974;DHT22;54756;51.140;6.952;2022-08-19T09:53:15;25.30;1.00
67974;DHT22;54756;51.140;6.952;2022-08-19T09:55:16;25.30;1.00
67974;DHT22;54756;51.140;6.952;2022-08-19T09:57:17;25.30;1.00
67974;DHT22;54756;51.140;6.952;2022-08-19T09:59:18;25.40;1.00
67974;DHT22;54756;51.140;6.952;2022-08-19T10:01:27;25.40;1.00
67974;DHT22;54756;51.140;6.952;2022-08-19T10:03:28;25.60;1.00
67974;DHT22;54756;51.140;6.952;2022-08-19T10:05:29;26.00;1.00
67974;DHT22;54756;51.140;6.952;2022-08-19T10:07:48;26.50;1.00
67974;DHT22;54756;51.140;6.952;2022-08-19T10:09:49;27.10;1.00
67974;DHT22;54756;51.140;6.952;2022-08-19T10:11:49;27.30;1.00
67974;DHT22;54756;51.140;6.952;2022-08-19T10:13:50;27.50;1.00
67974;DHT22;54756;51.140;6.952;2022-08-19T10:15:54;28.00;1.00
67974;DHT22;54756;51.140;6.952;2022-08-19T10:17:56;28.60;1.00
67974;DHT22;54756;51.140;6.952;2022-08-19T10:19:57;29.40;1.00
67974;DHT22;54756;51.140;6.952;2022-08-19T10:21:58;29.90;1.00
67974;DHT22;54756;51.140;6.952;2022-08-19T10:24:00;30.30;1.00
67974;DHT22;54756;51.140;6.952;2022-08-19T10:26:02;30.50;1.00
67974;DHT22;54756;51.140;6.952;2022-08-19T10:28:06;30.60;1.00
67974;DHT22;54756;51.140;6.952;2022-08-19T10:30:08;30.80;1.00
67974;DHT22;54756;51.140;6.952;2022-08-19T10:32:09;31.00;1.00
67974;DHT22;54756;51.140;6.952;2022-08-19T10:34:10;31.20;1.00
67974;DHT22;54756;51.140;6.952;2022-08-19T10:36:13;31.40;1.00
67974;DHT22;54756;51.140;6.952;2022-08-19T10:38:17;31.50;1.00
67974;DHT22;54756;51.140;6.952;2022-08-19T10:40:18;31.60;1.00
67974;DHT22;54756;51.140;6.952;2022-08-19T10:42:19;31.60;1.00
67974;DHT22;54756;51.140;6.952;2022-08-19T10:44:21;31.50;1.00
67974;DHT22;54756;51.140;6.952;2022-08-19T10:46:24;30.80;1.00
67974;DHT22;54756;51.140;6.952;2022-08-19T10:48:25;29.80;1.00
67974;DHT22;54756;51.140;6.952;2022-08-19T10:50:25;29.10;1.00
67974;DHT22;54756;51.140;6.952;2022-08-19T10:52:48;28.70;1.00
67974;DHT22;54756;51.140;6.952;2022-08-19T10:54:49;28.60;1.00
67974;DHT22;54756;51.140;6.952;2022-08-19T10:57:08;28.50;1.00
67974;DHT22;54756;51.140;6.952;2022-08-19T10:59:10;28.40;1.00
67974;DHT22;54756;51.140;6.952;2022-08-19T11:01:13;28.20;1.00
67974;DHT22;54756;51.140;6.952;2022-08-19T11:03:13;27.90;1.00
67974;DHT22;54756;51.140;6.952;2022-08-19T11:05:14;27.50;1.00
67974;DHT22;54756;51.140;6.952;2022-08-19T11:07:15;27.50;1.00
67974;DHT22;54756;51.140;6.952;2022-08-19T11:09:19;27.60;1.00
67974;DHT22;54756;51.140;6.952;2022-08-19T11:11:22;27.80;1.00
67974;DHT22;54756;51.140;6.952;2022-08-19T11:13:23;28.10;1.00
67974;DHT22;54756;51.140;6.952;2022-08-19T11:15:24;28.10;1.00
67974;DHT22;54756;51.140;6.952;2022-08-19T11:17:25;28.10;1.00
67974;DHT22;54756;51.140;6.952;2022-08-19T11:19:26;28.00;1.00
67974;DHT22;54756;51.140;6.952;2022-08-19T11:21:31;28.20;1.00
67974;DHT22;54756;51.140;6.952;2022-08-19T11:23:33;28.50;1.00
67974;DHT22;54756;51.140;6.952;2022-08-19T11:25:33;28.60;1.00
67974;DHT22;54756;51.140;6.952;2022-08-19T11:27:40;28.40;1.00
67974;DHT22;54756;51.140;6.952;2022-08-19T11:29:42;28.00;1.00
67974;DHT22;54756;51.140;6.952;2022-08-19T11:31:46;27.80;1.00
67974;DHT22;54756;51.140;6.952;2022-08-19T11:33:47;27.50;1.00
67974;DHT22;54756;51.140;6.952;2022-08-19T11:35:51;27.30;1.00
67974;DHT22;54756;51.140;6.952;2022-08-19T11:37:52;27.20;1.00
67974;DHT22;54756;51.140;6.952;2022-08-19T11:39:52;27.20;1.00
67974;DHT22;54756;51.140;6.952;2022-08-19T11:41:54;27.00;1.00
67974;DHT22;54756;51.140;6.952;2022-08-19T11:43:55;28.70;1.00
67974;DHT22;54756;51.140;6.952;2022-08-19T11:45:56;29.40;1.00
67974;DHT22;54756;51.140;6.952;2022-08-19T11:47:57;29.50;1.00
67974;DHT22;54756;51.140;6.952;2022-08-19T11:49:57;30.80;1.00
67974;DHT22;54756;51.140;6.952;2022-08-19T11:51:58;31.40;1.00
67974;DHT22;54756;51.140;6.952;2022-08-19T11:54:00;32.80;1.00
67974;DHT22;54756;51.140;6.952;2022-08-19T11:56:01;34.50;1.00
67974;DHT22;54756;51.140;6.952;2022-08-19T11:58:02;34.60;1.00
67974;DHT22;54756;51.140;6.952;2022-08-19T12:00:04;34.80;1.00
67974;DHT22;54756;51.140;6.952;2022-08-19T12:02:07;35.80;1.00
67974;DHT22;54756;51.140;6.952;2022-08-19T12:04:07;36.30;99.90
67974;DHT22;54756;51.140;6.952;2022-08-19T12:06:10;36.30;1.00
67974;DHT22;54756;51.140;6.952;2022-08-19T12:08:12;36.00;1.00
67974;DHT22;54756;51.140;6.952;2022-08-19T12:10:15;36.80;99.90
67974;DHT22;54756;51.140;6.952;2022-08-19T12:12:16;37.60;1.00
67974;DHT22;54756;51.140;6.952;2022-08-19T12:14:17;36.80;1.00
67974;DHT22;54756;51.140;6.952;2022-08-19T12:16:20;35.50;1.00
67974;DHT22;54756;51.140;6.952;2022-08-19T12:18:22;34.30;52.00
67974;DHT22;54756;51.140;6.952;2022-08-19T12:20:24;33.40;1.00
67974;DHT22;54756;51.140;6.952;2022-08-19T12:22:25;32.90;1.00
67974;DHT22;54756;51.140;6.952;2022-08-19T12:24:25;32.20;1.00
67974;DHT22;54756;51.140;6.952;2022-08-19T12:26:27;31.50;1.00
67974;DHT22;54756;51.140;6.952;2022-08-19T12:28:28;31.60;1.00
67974;DHT22;54756;51.140;6.952;2022-08-19T12:30:29;33.20;1.00
67974;DHT22;54756;51.140;6.952;2022-08-19T12:32:30;34.90;1.00
67974;DHT22;54756;51.140;6.952;2022-08-19T12:34:31;36.70;1.00
67974;DHT22;54756;51.140;6.952;2022-08-19T12:36:32;38.40;1.00
67974;DHT22;54756;51.140;6.952;2022-08-19T12:38:33;39.30;1.00
67974;DHT22;54756;51.140;6.952;2022-08-19T12:40:37;40.10;1.00
67974;DHT22;54756;51.140;6.952;2022-08-19T12:42:40;40.70;1.00
67974;DHT22;54756;51.140;6.952;2022-08-19T12:44:44;39.90;1.00
67974;DHT22;54756;51.140;6.952;2022-08-19T12:46:46;40.60;1.00
67974;DHT22;54756;51.140;6.952;2022-08-19T12:48:47;41.70;1.00
67974;DHT22;54756;51.140;6.952;2022-08-19T12:51:05;42.20;1.00
67974;DHT22;54756;51.140;6.952;2022-08-19T12:53:09;43.20;1.00
67974;DHT22;54756;51.140;6.952;2022-08-19T12:55:10;44.00;1.00
67974;DHT22;54756;51.140;6.952;2022-08-19T12:57:11;44.60;1.00
67974;DHT22;54756;51.140;6.952;2022-08-19T12:59:13;44.10;1.00
67974;DHT22;54756;51.140;6.952;2022-08-19T13:01:15;44.10;1.00
67974;DHT22;54756;51.140;6.952;2022-08-19T13:03:16;43.60;1.00
67974;DHT22;54756;51.140;6.952;2022-08-19T13:05:23;43.40;1.00
67974;DHT22;54756;51.140;6.952;2022-08-19T13:07:24;43.50;1.00